Time;durP1;ratioP1;P1;durP2;ratioP2;P2;SDS_P1;SDS_P2;PMS_P1;PMS_P2;Temp;Humidity;BMP_temperature;BMP_pressure;BME280_temperature;BME280_humidity;BME280_pressure;Samples;Min_cycle;Max_cycle;Signal;HPM_P1;HPM_P2
2021/12/22 00:01:48;;;;;;;69.50;30.10;;;;;;;-3.94;97.96;102438.56;6135438;23;20039;-87
2021/12/22 00:04:13;;;;;;;64.60;30.83;;;;;;;-3.90;98.04;102455.16;6185352;23;20000;-86
2021/12/22 00:06:39;;;;;;;64.15;30.48;;;;;;;-4.05;98.08;102427.66;6110490;23;20036;-86
2021/12/22 00:09:05;;;;;;;65.82;31.38;;;;;;;-3.89;97.64;102467.50;6110528;23;20136;-87
2021/12/22 00:11:31;;;;;;;71.47;31.98;;;;;;;-3.91;97.74;102475.53;6134884;23;20318;-87
2021/12/22 00:13:57;;;;;;;71.47;31.85;;;;;;;-3.92;97.78;102467.66;6134998;23;20056;-87
2021/12/22 00:16:22;;;;;;;68.25;31.08;;;;;;;-4.15;97.95;102435.25;6135059;23;20384;-87
2021/12/22 00:18:48;;;;;;;65.50;30.88;;;;;;;-4.06;97.81;102447.16;6135035;23;20019;-87
2021/12/22 00:21:14;;;;;;;67.82;30.83;;;;;;;-3.94;97.95;102461.56;6159043;23;20375;-85
2021/12/22 00:23:40;;;;;;;62.65;30.02;;;;;;;-4.35;97.89;102399.19;6185734;23;20060;-86
2021/12/22 00:26:06;;;;;;;69.20;31.45;;;;;;;-4.24;97.91;102422.47;6159457;23;20009;-86
2021/12/22 00:28:34;;;;;;;64.78;30.98;;;;;;;-4.00;98.03;102472.50;6159311;23;20008;-86
2021/12/22 00:31:00;;;;;;;63.58;30.52;;;;;;;-4.39;98.09;102404.72;6135241;23;20340;-86
2021/12/22 00:33:28;;;;;;;71.25;31.23;;;;;;;-4.05;98.26;102459.47;6135026;23;20011;-87
2021/12/22 00:35:54;;;;;;;66.80;31.40;;;;;;;-4.15;98.14;102442.34;6135273;23;20008;-87
2021/12/22 00:38:22;;;;;;;68.47;31.35;;;;;;;-4.25;98.19;102424.28;6159366;23;20420;-87
2021/12/22 00:40:48;;;;;;;72.82;32.33;;;;;;;-4.41;98.65;102389.75;6158875;23;20012;-87
2021/12/22 00:43:16;;;;;;;63.78;31.42;;;;;;;-3.98;98.76;102468.81;6158868;23;20009;-87
2021/12/22 00:45:41;;;;;;;64.47;30.63;;;;;;;-4.14;98.50;102446.72;6159221;23;20326;-87
2021/12/22 00:48:09;;;;;;;69.13;31.55;;;;;;;-4.03;98.69;102460.28;6134462;23;20036;-87
2021/12/22 00:50:37;;;;;;;64.93;30.52;;;;;;;-4.16;98.78;102433.53;6134705;23;20012;-87
2021/12/22 00:53:03;;;;;;;66.55;30.40;;;;;;;-3.98;98.25;102465.34;6159120;23;20001;-87
2021/12/22 00:55:28;;;;;;;67.20;30.45;;;;;;;-4.07;97.92;102459.56;6159673;23;20001;-87
2021/12/22 00:57:55;;;;;;;71.82;31.35;;;;;;;-4.25;97.77;102436.69;6184641;23;20089;-86
2021/12/22 01:00:24;;;;;;;68.07;31.02;;;;;;;-4.08;98.15;102462.28;6185279;23;20080;-87
2021/12/22 01:02:49;;;;;;;69.13;30.90;;;;;;;-4.24;98.51;102441.91;6158901;23;20005;-86
2021/12/22 01:05:16;;;;;;;68.53;30.67;;;;;;;-4.08;98.51;102467.59;6134182;23;20063;-86
2021/12/22 01:07:47;;;;;;;65.60;30.75;;;;;;;-4.34;98.40;102435.34;6159006;23;20013;-86
2021/12/22 01:10:14;;;;;;;62.63;29.58;;;;;;;-4.16;98.29;102473.31;6158896;23;20024;-86
2021/12/22 01:12:39;;;;;;;64.90;30.45;;;;;;;-4.18;98.25;102469.84;6158876;23;20452;-86
2021/12/22 01:15:11;;;;;;;65.10;30.05;;;;;;;-4.18;98.24;102469.84;6133842;23;20005;-86
2021/12/22 01:17:41;;;;;;;64.93;29.67;;;;;;;-4.24;98.00;102456.94;6185132;23;20005;-86
2021/12/22 01:20:17;;;;;;;63.88;29.23;;;;;;;-4.45;97.85;102421.78;6158637;23;20565;-86
2021/12/22 01:25:12;;;;;;;60.00;29.55;;;;;;;-4.41;98.10;102434.81;6185403;23;20013;-86
2021/12/22 01:27:41;;;;;;;59.50;30.23;;;;;;;-4.30;97.63;102454.59;6158656;23;20017;-86
2021/12/22 01:30:12;;;;;;;66.00;29.13;;;;;;;-4.36;97.76;102439.88;6134797;23;20313;-87
2021/12/22 01:32:38;;;;;;;60.90;29.17;;;;;;;-4.56;97.81;102408.22;6158142;23;20005;-87
2021/12/22 01:35:07;;;;;;;61.08;29.63;;;;;;;-4.59;98.22;102399.50;6185023;23;20059;-86
2021/12/22 01:37:35;;;;;;;60.72;28.15;;;;;;;-4.56;98.27;102398.50;6158906;23;20033;-86
2021/12/22 01:40:01;;;;;;;62.00;29.55;;;;;;;-4.55;98.03;102408.16;6158759;23;20020;-87
2021/12/22 01:42:27;;;;;;;65.47;29.52;;;;;;;-4.56;98.10;102409.09;6133911;23;20005;-86
2021/12/22 01:50:49;;;;;;;64.72;28.67;;;;;;;-4.49;97.89;102418.44;6184709;23;20016;-86
2021/12/22 01:53:21;;;;;;;56.70;27.45;;;;;;;-4.35;97.78;102443.38;6154707;23;20428;-86
2021/12/22 01:56:01;;;;;;;61.10;28.70;;;;;;;-4.53;98.17;102406.28;6158422;23;20028;-86
2021/12/22 01:58:36;;;;;;;60.67;27.20;;;;;;;-4.49;99.04;102410.47;6157941;23;20021;-86
2021/12/22 02:01:03;;;;;;;58.00;27.33;;;;;;;-4.24;99.06;102436.59;6158270;23;20019;-86
2021/12/22 02:03:29;;;;;;;70.28;28.33;;;;;;;-4.20;98.84;102449.69;6158310;23;20009;-86
2021/12/22 02:05:55;;;;;;;58.40;28.20;;;;;;;-4.35;98.71;102414.25;6133286;23;20328;-86
2021/12/22 02:08:21;;;;;;;61.88;27.23;;;;;;;-4.17;98.92;102453.03;6184680;23;20495;-87
2021/12/22 02:10:48;;;;;;;55.22;27.10;;;;;;;-4.51;98.71;102411.53;6184802;23;20009;-87
2021/12/22 02:13:23;;;;;;;54.25;26.15;;;;;;;-4.39;99.76;102436.53;6184698;23;19997;-86
2021/12/22 02:15:49;;;;;;;57.70;26.85;;;;;;;-4.48;98.79;102422.81;6158173;23;20083;-86
2021/12/22 02:18:19;;;;;;;57.65;26.73;;;;;;;-4.70;98.52;102391.25;6133716;23;20424;-86
2021/12/22 02:20:46;;;;;;;54.10;25.90;;;;;;;-4.41;98.96;102452.50;6159121;23;20009;-86
2021/12/22 02:23:12;;;;;;;52.47;26.58;;;;;;;-4.51;99.34;102432.72;6157897;23;20005;-85
2021/12/22 02:25:45;;;;;;;56.25;26.98;;;;;;;-4.34;98.92;102461.84;6157959;23;20005;-86
2021/12/22 02:28:18;;;;;;;53.85;25.58;;;;;;;-4.39;98.83;102455.91;6135505;23;20005;-86
2021/12/22 02:30:44;;;;;;;53.63;26.23;;;;;;;-4.38;98.74;102464.72;6135009;23;20009;-86
2021/12/22 02:33:21;;;;;;;56.95;26.58;;;;;;;-4.45;99.39;102456.25;6109095;23;20012;-85
2021/12/22 02:38:31;;;;;;;58.05;25.15;;;;;;;-4.32;99.21;102461.78;6194897;23;20021;-86
2021/12/22 02:40:57;;;;;;;58.72;25.77;;;;;;;-4.29;99.60;102461.63;6183903;23;20152;-86
2021/12/22 02:43:24;;;;;;;52.33;26.55;;;;;;;-4.30;99.38;102460.75;6158715;23;20441;-86
2021/12/22 02:45:52;;;;;;;53.00;25.88;;;;;;;-4.31;99.43;102466.13;6134585;23;20376;-86
2021/12/22 02:48:18;;;;;;;58.85;25.65;;;;;;;-4.34;99.14;102460.97;6184427;23;20033;-86
2021/12/22 02:50:44;;;;;;;54.47;25.83;;;;;;;-4.37;99.50;102453.19;6184471;23;20005;-85
2021/12/22 02:53:14;;;;;;;52.40;25.50;;;;;;;-4.56;99.39;102427.66;6133579;23;20055;-87
2021/12/22 02:55:59;;;;;;;48.13;24.30;;;;;;;-4.73;99.41;102393.22;6158128;23;20016;-87
2021/12/22 03:03:53;;;;;;;;;;;;;;;-4.32;98.70;102448.53;6195345;23;20009;-86
2021/12/22 03:06:32;;;;;;;49.78;23.38;;;;;;;-4.44;99.15;102429.66;6158264;23;19982;-87
2021/12/22 03:08:57;;;;;;;53.17;25.13;;;;;;;-4.31;99.33;102452.88;6136281;23;20009;-86
2021/12/22 03:11:23;;;;;;;53.00;24.10;;;;;;;-4.37;99.19;102458.50;6133705;23;20064;-86
2021/12/22 03:13:49;;;;;;;51.58;24.98;;;;;;;-4.70;99.09;102411.59;6109775;23;20008;-87
2021/12/22 03:16:17;;;;;;;52.75;24.88;;;;;;;-4.80;98.48;102413.84;6133216;23;20005;-87
2021/12/22 03:18:43;;;;;;;49.92;24.08;;;;;;;-4.80;98.62;102422.66;6159926;23;20450;-86
2021/12/22 03:21:19;;;;;;;48.92;23.63;;;;;;;-4.97;98.31;102407.59;6135394;23;20005;-87
2021/12/22 03:23:48;;;;;;;51.90;24.65;;;;;;;-4.96;98.68;102413.72;6186437;23;20001;-86
2021/12/22 03:26:17;;;;;;;50.63;24.13;;;;;;;-4.66;98.94;102471.44;6160829;23;20080;-87
2021/12/22 03:28:45;;;;;;;48.30;24.75;;;;;;;-4.70;99.08;102461.91;6112129;23;20329;-86
2021/12/22 03:31:11;;;;;;;49.05;24.45;;;;;;;-4.66;99.56;102477.56;6135246;23;20016;-86
2021/12/22 03:33:37;;;;;;;51.40;24.90;;;;;;;-4.71;99.81;102473.44;6159660;23;20008;-87
2021/12/22 03:36:03;;;;;;;54.03;26.02;;;;;;;-4.83;99.58;102459.00;6159984;23;20380;-87
2021/12/22 03:38:31;;;;;;;49.55;22.83;;;;;;;-4.96;99.04;102437.56;6135545;23;20013;-87
2021/12/22 03:40:56;;;;;;;55.17;24.35;;;;;;;-4.78;99.42;102472.91;6160237;23;20005;-86
2021/12/22 03:43:22;;;;;;;50.30;24.13;;;;;;;-5.03;99.35;102442.31;6185958;23;20435;-86
2021/12/22 03:45:47;;;;;;;50.83;25.55;;;;;;;-4.84;98.96;102471.41;6111004;23;20033;-86
2021/12/22 03:48:18;;;;;;;48.85;23.50;;;;;;;-5.09;99.06;102432.03;6159536;23;20005;-85
2021/12/22 03:50:43;;;;;;;45.90;23.27;;;;;;;-5.24;99.00;102396.59;6185891;23;20428;-86
2021/12/22 03:53:09;;;;;;;48.90;23.52;;;;;;;-4.83;98.69;102456.34;6185851;23;20020;-86
2021/12/22 03:55:34;;;;;;;49.25;23.98;;;;;;;-4.88;99.44;102448.66;6134989;23;20529;-86
2021/12/22 03:58:00;;;;;;;49.95;23.90;;;;;;;-4.74;100.00;102452.41;6159392;23;20488;-86
2021/12/22 04:00:26;;;;;;;50.53;23.67;;;;;;;-4.87;99.41;102433.59;6159959;23;20075;-86
2021/12/22 04:02:51;;;;;;;54.70;23.75;;;;;;;-4.85;99.69;102450.28;6135332;23;20100;-85
2021/12/22 04:05:18;;;;;;;50.75;24.85;;;;;;;-4.67;99.59;102469.72;6134851;23;20023;-86
2021/12/22 04:07:44;;;;;;;52.20;24.35;;;;;;;-4.65;99.96;102462.53;6135241;23;20005;-85
2021/12/22 04:10:20;;;;;;;50.55;23.75;;;;;;;-5.01;100.00;102411.31;6185376;23;20009;-85
2021/12/22 04:12:52;;;;;;;54.55;24.38;;;;;;;-5.05;99.71;102388.56;6137440;23;20005;-86
2021/12/22 04:15:18;;;;;;;52.50;24.15;;;;;;;-4.64;100.00;102456.31;6185793;23;20005;-86
2021/12/22 04:17:43;;;;;;;50.67;22.77;;;;;;;-4.82;99.77;102424.50;6185714;23;20005;-85
2021/12/22 04:20:10;;;;;;;56.15;23.27;;;;;;;-4.59;100.00;102462.25;6185751;23;20024;-85
2021/12/22 04:22:36;;;;;;;49.22;22.95;;;;;;;-4.63;99.94;102452.72;6159329;23;20033;-85
2021/12/22 04:25:04;;;;;;;45.92;22.63;;;;;;;-4.72;99.73;102431.97;6159218;23;20440;-85
2021/12/22 04:27:29;;;;;;;49.63;22.95;;;;;;;-4.63;100.00;102439.50;6134076;23;20016;-85
2021/12/22 04:29:58;;;;;;;48.80;23.02;;;;;;;-4.65;100.00;102430.75;6185607;23;20004;-85
2021/12/22 04:32:23;;;;;;;45.60;22.83;;;;;;;-4.72;99.86;102414.31;6135832;23;20009;-85
2021/12/22 04:34:49;;;;;;;47.78;23.02;;;;;;;-4.63;100.00;102427.09;6159125;23;20097;-85
2021/12/22 04:37:14;;;;;;;42.67;21.10;;;;;;;-4.53;99.80;102440.75;6185379;23;20008;-87
2021/12/22 04:39:43;;;;;;;42.45;21.42;;;;;;;-4.52;100.00;102434.47;6134726;23;20016;-86
2021/12/22 04:42:08;;;;;;;46.33;21.90;;;;;;;-4.53;100.00;102438.09;6134604;23;20392;-86
2021/12/22 04:44:34;;;;;;;45.65;21.38;;;;;;;-4.80;99.64;102387.34;6158697;23;20439;-86
2021/12/22 04:47:00;;;;;;;46.50;20.77;;;;;;;-4.50;99.74;102437.94;6134688;23;20417;-86
2021/12/22 04:49:26;;;;;;;45.33;22.05;;;;;;;-4.57;99.50;102433.88;6159044;23;20005;-86
2021/12/22 04:51:54;;;;;;;40.35;20.73;;;;;;;-4.60;99.37;102426.09;6134727;23;20053;-86
2021/12/22 04:54:33;;;;;;;41.70;20.15;;;;;;;-4.82;99.72;102395.38;6159031;23;20005;-86
2021/12/22 04:56:59;;;;;;;45.08;21.27;;;;;;;-4.90;99.59;102383.47;6159235;23;20013;-86
2021/12/22 04:59:25;;;;;;;42.35;20.63;;;;;;;-4.51;99.79;102444.16;6134300;23;20044;-86
2021/12/22 05:01:53;;;;;;;41.22;20.75;;;;;;;-4.54;100.00;102443.47;6184870;23;20013;-86
2021/12/22 05:04:19;;;;;;;38.45;20.52;;;;;;;-4.51;99.56;102438.84;6134197;23;20005;-86
2021/12/22 05:06:44;;;;;;;39.65;19.92;;;;;;;-4.76;99.43;102399.50;6159020;23;20058;-87
2021/12/22 05:09:10;;;;;;;37.33;20.10;;;;;;;-4.93;99.38;102381.84;6185369;23;20039;-87
2021/12/22 05:11:35;;;;;;;37.95;19.30;;;;;;;-4.76;99.55;102418.91;6109959;23;20063;-86
2021/12/22 05:14:03;;;;;;;36.95;19.25;;;;;;;-4.71;99.60;102418.69;6134361;23;20012;-87
2021/12/22 05:16:29;;;;;;;39.42;18.63;;;;;;;-4.95;98.85;102384.53;6158787;23;20034;-86
2021/12/22 05:19:10;;;;;;;41.20;19.90;;;;;;;-5.03;99.92;102370.84;6158257;23;20009;-87
2021/12/22 05:21:35;;;;;;;41.17;18.77;;;;;;;-5.04;99.27;102353.22;6137391;23;20005;-87
2021/12/22 05:24:01;;;;;;;39.78;18.63;;;;;;;-4.65;99.65;102422.78;6158960;23;20059;-87
2021/12/22 05:26:28;;;;;;;36.85;18.85;;;;;;;-4.65;100.00;102426.31;6134559;23;20035;-87
2021/12/22 05:28:54;;;;;;;38.60;19.33;;;;;;;-4.70;100.00;102414.25;6159745;23;20444;-87
2021/12/22 05:31:20;;;;;;;36.17;19.40;;;;;;;-4.84;100.00;102391.09;6158868;23;20041;-87
2021/12/22 05:33:46;;;;;;;38.40;18.52;;;;;;;-4.63;99.71;102431.53;6134612;23;20005;-87
2021/12/22 05:36:11;;;;;;;40.45;18.30;;;;;;;-4.94;99.99;102382.75;6134087;23;20067;-87
2021/12/22 05:38:36;;;;;;;35.80;18.67;;;;;;;-4.86;99.74;102385.03;6109726;23;20024;-87
2021/12/22 05:41:02;;;;;;;38.08;19.55;;;;;;;-4.81;100.00;102394.44;6158483;23;20012;-87
2021/12/22 05:43:28;;;;;;;37.75;19.80;;;;;;;-4.69;99.87;102411.50;6184975;23;20036;-86
2021/12/22 05:45:53;;;;;;;37.35;18.52;;;;;;;-5.05;100.00;102343.56;6159095;23;20008;-87
2021/12/22 05:48:20;;;;;;;34.50;18.75;;;;;;;-4.63;100.00;102408.53;6134236;23;20156;-86
2021/12/22 05:50:51;;;;;;;35.58;18.85;;;;;;;-4.80;100.00;102388.22;6158613;23;20011;-87
2021/12/22 05:53:17;;;;;;;35.95;17.55;;;;;;;-4.76;99.83;102392.41;6159686;23;20034;-86
2021/12/22 05:55:42;;;;;;;35.55;18.55;;;;;;;-4.72;100.00;102397.56;6158497;23;20019;-87
2021/12/22 05:58:11;;;;;;;38.80;18.83;;;;;;;-5.04;99.80;102347.94;6184728;23;20013;-86
2021/12/22 06:00:36;;;;;;;34.40;17.42;;;;;;;-4.95;99.65;102363.34;6159307;23;20012;-86
2021/12/22 06:03:02;;;;;;;34.70;17.00;;;;;;;-4.85;99.51;102378.81;6133729;23;20424;-87
2021/12/22 06:05:28;;;;;;;36.28;18.58;;;;;;;-4.68;100.00;102405.28;6158383;23;20028;-86
2021/12/22 06:07:53;;;;;;;36.92;18.17;;;;;;;-4.68;100.00;102399.13;6133861;23;20093;-86
2021/12/22 06:10:19;;;;;;;38.65;17.90;;;;;;;-4.80;100.00;102385.59;6158087;23;20005;-86
2021/12/22 06:12:44;;;;;;;33.95;17.55;;;;;;;-4.85;100.00;102382.28;6184542;23;20055;-86
2021/12/22 06:15:10;;;;;;;33.42;17.27;;;;;;;-4.71;99.96;102413.41;6133499;23;20095;-86
2021/12/22 06:17:38;;;;;;;33.38;17.60;;;;;;;-4.68;99.47;102415.88;6133576;23;20009;-86
2021/12/22 06:20:05;;;;;;;32.60;15.88;;;;;;;-4.83;99.77;102388.34;6134116;23;20011;-85
2021/12/22 06:22:33;;;;;;;33.92;17.02;;;;;;;-4.84;99.84;102378.72;6158558;23;20013;-87
2021/12/22 06:24:58;;;;;;;34.05;17.05;;;;;;;-4.86;99.31;102391.16;6134487;23;20429;-87
2021/12/22 06:27:27;;;;;;;33.13;17.17;;;;;;;-5.03;99.90;102370.00;6133958;23;20009;-89
2021/12/22 06:29:52;;;;;;;30.52;16.35;;;;;;;-4.78;99.90;102401.41;6110716;23;20009;-88
2021/12/22 06:32:19;;;;;;;31.23;16.88;;;;;;;-4.68;99.95;102409.72;6135024;23;20008;-88
2021/12/22 06:34:44;;;;;;;30.77;16.40;;;;;;;-4.86;99.97;102374.44;6110067;23;20059;-89
2021/12/22 06:37:12;;;;;;;33.08;15.68;;;;;;;-4.83;100.00;102391.00;6110194;23;20009;-88
2021/12/22 06:39:39;;;;;;;29.27;16.75;;;;;;;-4.69;100.00;102408.88;6158957;23;20016;-88
2021/12/22 06:42:10;;;;;;;33.85;16.83;;;;;;;-4.69;100.00;102415.97;6111239;23;20005;-90
2021/12/22 06:44:36;;;;;;;28.08;16.83;;;;;;;-5.12;100.00;102350.97;6160348;23;20100;-87
2021/12/22 06:47:02;;;;;;;32.60;16.05;;;;;;;-4.85;100.00;102389.41;6159463;23;20029;-89
2021/12/22 06:49:28;;;;;;;36.60;17.90;;;;;;;-4.72;99.72;102413.44;6134490;23;20016;-89
2021/12/22 06:51:53;;;;;;;33.60;17.42;;;;;;;-4.70;100.00;102423.03;6111556;23;20076;-89
2021/12/22 06:54:19;;;;;;;34.10;17.05;;;;;;;-5.05;100.00;102364.75;6136317;23;20314;-88
2021/12/22 06:56:46;;;;;;;32.03;16.73;;;;;;;-5.08;100.00;102364.91;6136718;23;20073;-89
2021/12/22 06:59:14;;;;;;;29.27;16.30;;;;;;;-4.72;100.00;102424.03;6112516;23;20317;-89
2021/12/22 07:01:39;;;;;;;33.67;17.85;;;;;;;-5.11;100.00;102355.34;6136834;23;20021;-88
2021/12/22 07:04:05;;;;;;;31.85;17.17;;;;;;;-4.73;100.00;102425.84;6160807;23;20394;-88
2021/12/22 07:06:33;;;;;;;35.97;17.95;;;;;;;-4.74;99.79;102432.06;6112401;23;20009;-88
2021/12/22 07:08:59;;;;;;;32.25;16.52;;;;;;;-5.02;99.78;102380.50;6136540;23;20005;-88
2021/12/22 07:11:25;;;;;;;28.65;15.85;;;;;;;-5.10;100.00;102361.50;6111655;23;20015;-88
2021/12/22 07:13:52;;;;;;;34.08;16.50;;;;;;;-4.98;99.27;102378.56;6160458;23;20032;-88
2021/12/22 07:16:18;;;;;;;30.35;16.52;;;;;;;-4.89;100.00;102390.47;6160572;23;20455;-89
2021/12/22 07:18:43;;;;;;;31.35;15.20;;;;;;;-4.73;100.00;102414.41;6160452;23;20001;-88
2021/12/22 07:21:10;;;;;;;32.33;16.90;;;;;;;-5.19;99.93;102346.06;6160429;23;20078;-89
2021/12/22 07:23:36;;;;;;;30.73;16.33;;;;;;;-5.09;99.88;102352.63;6161114;23;20005;-89
2021/12/22 07:26:01;;;;;;;32.05;15.80;;;;;;;-4.85;99.80;102389.41;6136017;23;20096;-89
2021/12/22 07:28:27;;;;;;;28.42;15.50;;;;;;;-5.07;100.00;102358.69;6160593;23;20059;-88
2021/12/22 07:30:53;;;;;;;27.88;14.90;;;;;;;-4.90;99.48;102392.28;6160511;23;20005;-87
2021/12/22 07:33:19;;;;;;;26.30;15.05;;;;;;;-4.89;99.62;102396.63;6111667;23;20794;-90
2021/12/22 07:35:59;;;;;;;30.33;14.73;;;;;;;-5.01;99.20;102365.47;6161413;23;20496;-89
2021/12/22 07:38:25;;;;;;;28.70;15.05;;;;;;;-4.70;99.06;102420.38;6186961;23;20001;-89
2021/12/22 07:40:52;;;;;;;30.33;15.15;;;;;;;-4.98;99.91;102381.19;6160771;23;20012;-89
2021/12/22 07:43:39;;;;;;;30.13;14.40;;;;;;;-4.71;99.86;102421.34;6112264;23;20020;-89
2021/12/22 07:46:08;;;;;;;28.10;14.90;;;;;;;-5.02;99.75;102367.28;6160580;23;20059;-89
2021/12/22 07:48:34;;;;;;;30.05;14.43;;;;;;;-4.89;98.79;102383.38;6160804;23;20005;-89
2021/12/22 07:51:00;;;;;;;26.73;14.98;;;;;;;-4.67;99.91;102414.09;6160585;23;20009;-87
2021/12/22 07:53:25;;;;;;;30.50;14.32;;;;;;;-5.06;99.85;102356.88;6160625;23;20012;-88
2021/12/22 07:55:53;;;;;;;27.35;13.98;;;;;;;-5.06;98.81;102347.16;6160244;23;20009;-89
2021/12/22 07:58:23;;;;;;;25.50;14.02;;;;;;;-4.92;99.37;102370.28;6160047;23;20028;-88
2021/12/22 08:00:51;;;;;;;25.15;14.43;;;;;;;-4.98;99.48;102352.91;6112242;23;20009;-89
2021/12/22 08:03:16;;;;;;;27.60;14.13;;;;;;;-4.91;99.59;102361.44;6159689;23;20314;-89
2021/12/22 08:05:42;;;;;;;25.80;13.55;;;;;;;-4.50;100.00;102410.56;6159873;23;20012;-89
2021/12/22 08:08:08;;;;;;;27.05;14.32;;;;;;;-4.60;99.83;102383.69;6136223;23;20013;-88
2021/12/22 08:10:34;;;;;;;27.38;13.88;;;;;;;-4.43;99.63;102404.88;6112202;23;20009;-89
2021/12/22 08:12:59;;;;;;;24.25;14.07;;;;;;;-4.76;99.96;102347.38;6160072;23;20487;-88
2021/12/22 08:15:25;;;;;;;26.95;14.45;;;;;;;-4.42;99.69;102390.69;6160596;23;20005;-88
2021/12/22 08:17:54;;;;;;;25.13;13.82;;;;;;;-4.27;99.51;102404.06;6161049;23;20036;-89
2021/12/22 08:20:21;;;;;;;30.30;14.35;;;;;;;-4.64;99.49;102335.31;6135989;23;20008;-88
2021/12/22 08:22:47;;;;;;;26.90;13.63;;;;;;;-4.31;98.92;102386.63;6136086;23;20317;-89
2021/12/22 08:25:15;;;;;;;26.63;13.55;;;;;;;-4.24;99.05;102386.25;6160623;23;20043;-88
2021/12/22 08:27:41;;;;;;;26.70;13.05;;;;;;;-4.39;99.31;102343.78;6159779;23;20001;-89
2021/12/22 08:30:07;;;;;;;26.08;14.27;;;;;;;-4.07;98.88;102389.78;6184695;23;20012;-88
2021/12/22 08:32:34;;;;;;;25.52;13.75;;;;;;;-4.21;98.94;102364.00;6161108;23;20009;-89
2021/12/22 08:35:03;;;;;;;30.23;13.90;;;;;;;-4.03;98.89;102386.03;6160707;23;20062;-88
2021/12/22 08:40:17;;;;;;;24.60;13.32;;;;;;;-4.19;98.98;102343.56;6187085;23;20067;-89
2021/12/22 08:42:44;;;;;;;26.23;14.73;;;;;;;-3.71;98.69;102410.78;6160408;23;20483;-89
2021/12/22 08:45:11;;;;;;;29.20;14.50;;;;;;;-3.80;98.56;102390.06;6160093;23;20440;-89
2021/12/22 08:47:37;;;;;;;25.65;13.57;;;;;;;-3.75;98.69;102379.19;6159117;23;20005;-87
2021/12/22 08:50:08;;;;;;;24.85;13.30;;;;;;;-3.53;97.90;102410.72;6159512;23;20005;-88
2021/12/22 08:52:34;;;;;;;27.63;13.68;;;;;;;-3.83;98.12;102342.50;6111088;23;20005;-89
2021/12/22 08:55:11;;;;;;;26.65;12.95;;;;;;;-3.39;98.12;102409.97;6135163;23;20001;-89
2021/12/22 08:57:39;;;;;;;25.77;13.60;;;;;;;-3.50;97.68;102384.00;6159598;23;20028;-88
2021/12/22 09:00:11;;;;;;;26.80;13.52;;;;;;;-3.45;97.66;102381.97;6159694;23;20067;-89
2021/12/22 09:02:41;;;;;;;31.23;14.10;;;;;;;-3.33;97.29;102383.06;6159500;23;20032;-88
2021/12/22 09:05:07;;;;;;;24.90;12.68;;;;;;;-3.22;97.17;102393.06;6158996;23;20005;-89
2021/12/22 09:07:34;;;;;;;27.63;13.15;;;;;;;-3.22;96.65;102378.00;6159349;23;20063;-89
2021/12/22 09:09:59;;;;;;;22.83;13.68;;;;;;;-3.33;96.53;102345.91;6159684;23;20028;-88
2021/12/22 09:12:27;;;;;;;27.42;13.18;;;;;;;-3.24;96.91;102350.69;6135270;23;20504;-90
2021/12/22 09:14:55;;;;;;;26.25;12.90;;;;;;;-2.82;96.47;102398.72;6162124;23;20009;-89
2021/12/22 09:17:21;;;;;;;25.13;13.75;;;;;;;-2.75;96.46;102400.06;6136247;23;20009;-88
2021/12/22 09:20:30;;;;;;;26.42;13.25;;;;;;;-2.69;96.48;102399.75;6111244;23;20068;-89
2021/12/22 09:22:56;;;;;;;23.52;12.15;;;;;;;-2.98;95.61;102339.47;6158814;23;20469;-89
2021/12/22 09:25:24;;;;;;;24.50;13.05;;;;;;;-2.74;95.82;102369.91;6159552;23;20012;-88
2021/12/22 09:27:59;;;;;;;25.30;13.70;;;;;;;-2.65;95.71;102365.84;6159137;23;20011;-89
2021/12/22 09:30:25;;;;;;;24.30;12.98;;;;;;;-2.53;95.70;102375.75;6135090;23;20079;-88
2021/12/22 09:32:51;;;;;;;20.92;12.65;;;;;;;-2.43;95.12;102380.53;6159083;23;20001;-88
2021/12/22 09:35:17;;;;;;;27.45;12.60;;;;;;;-2.57;94.81;102339.69;6159679;23;20009;-88
2021/12/22 09:37:42;;;;;;;23.77;13.15;;;;;;;-2.19;94.85;102376.34;6134691;23;20144;-88
2021/12/22 09:40:11;;;;;;;22.17;12.77;;;;;;;-2.30;94.67;102339.78;6158867;23;20005;-88
2021/12/22 09:42:37;;;;;;;25.52;13.10;;;;;;;-2.10;93.80;102350.97;6159008;23;20012;-89
2021/12/22 09:45:25;;;;;;;21.23;12.32;;;;;;;-1.87;93.38;102362.00;6159349;23;20009;-87
2021/12/22 09:48:22;;;;;;;22.20;12.25;;;;;;;-1.54;93.14;102390.09;6158884;23;20336;-88
2021/12/22 09:52:15;;;;;;;20.77;11.23;;;;;;;-1.38;91.94;102393.47;6159340;23;20013;-88
2021/12/22 09:53:43;;;;;;;25.42;11.98;;;;;;;-1.36;90.58;102372.06;6183860;23;20496;-88
2021/12/22 09:56:09;;;;;;;26.25;12.25;;;;;;;-1.44;90.65;102320.16;6158005;23;20437;-88
2021/12/22 09:58:44;;;;;;;22.50;11.85;;;;;;;-1.26;89.97;102336.72;6158678;23;20033;-89
2021/12/22 10:01:11;;;;;;;19.00;10.30;;;;;;;-0.78;89.85;102392.19;6159177;23;20032;-89
2021/12/22 10:03:38;;;;;;;22.90;11.15;;;;;;;-0.79;89.21;102369.16;6110199;23;20013;-89
2021/12/22 10:06:07;;;;;;;20.20;11.25;;;;;;;-0.64;88.90;102369.91;6134578;23;20009;-88
2021/12/22 10:08:39;;;;;;;21.35;11.00;;;;;;;-0.72;88.54;102324.28;6158616;23;20029;-88
2021/12/22 10:11:08;;;;;;;;;;;;;;;-0.13;89.79;102384.22;6135961;23;20009;-89
2021/12/22 10:13:36;;;;;;;18.30;10.38;;;;;;;-0.27;87.66;102356.72;6159462;23;19904;-89
2021/12/22 10:16:22;;;;;;;23.13;11.13;;;;;;;-0.26;86.49;102339.75;6158848;23;20016;-88
2021/12/22 10:19:39;;;;;;;23.67;11.85;;;;;;;0.13;87.04;102379.72;6160974;23;20466;-92
2021/12/22 10:22:28;;;;;;;21.63;11.38;;;;;;;0.16;85.10;102376.84;6188248;23;20084;-92
2021/12/22 10:25:30;;;;;;;22.65;11.18;;;;;;;-0.27;85.17;102297.19;6142544;23;20122;-93
2021/12/22 10:31:42;;;;;;;21.10;10.63;;;;;;;0.17;84.73;102370.53;6181517;23;20020;-93
2021/12/22 10:34:37;;;;;;;18.63;10.95;;;;;;;-0.15;84.03;102309.63;6187775;23;20005;-92
2021/12/22 10:37:31;;;;;;;20.30;9.63;;;;;;;-0.05;82.96;102304.50;6162858;23;20009;-92
2021/12/22 10:40:27;;;;;;;17.13;9.98;;;;;;;0.08;82.01;102307.16;6143372;23;20075;-91
2021/12/22 10:42:56;;;;;;;18.33;10.15;;;;;;;0.24;81.13;102288.22;6155813;23;20080;-91
2021/12/22 10:45:23;;;;;;;21.70;10.55;;;;;;;0.65;80.45;102332.34;6164652;23;20005;-91
2021/12/22 12:31:22;;;;;;;11.05;5.47;;;;;;;12.01;45.80;102190.50;6255630;22;20078;-93
2021/12/22 12:38:12;;;;;;;11.52;6.47;;;;;;;13.80;42.34;102156.63;6255123;23;20111;-88
2021/12/22 12:41:51;;;;;;;10.20;6.75;;;;;;;14.02;41.45;102172.81;6189942;23;20711;-93
2021/12/22 12:44:35;;;;;;;12.77;7.10;;;;;;;13.38;40.54;102149.53;6104420;23;20073;-91
2021/12/22 12:47:40;;;;;;;;;;;;;;;;;;;;;
2021/12/22 12:50:51;;;;;;;14.23;7.25;;;;;;;13.14;40.75;102157.97;6065695;23;20089;-92
2021/12/22 12:57:09;;;;;;;16.17;7.88;;;;;;;13.11;40.60;102117.50;6108635;23;20017;-94
2021/12/22 13:00:42;;;;;;;;;;;;;;;;;;;;;
2021/12/22 13:03:54;;;;;;;;;;;;;;;;;;;;;
2021/12/22 13:07:09;;;;;;;12.10;6.60;;;;;;;12.02;41.96;102156.00;6073569;23;20081;-93
2021/12/22 13:58:39;;;;;;;12.60;7.38;;;;;;;10.53;44.92;102079.00;5853612;24;20070;-92
2021/12/22 14:01:28;;;;;;;10.18;7.25;;;;;;;11.62;42.43;102076.66;5926450;23;20016;-90
2021/12/22 14:04:00;;;;;;;13.95;7.38;;;;;;;12.05;41.10;102083.00;6002937;23;20017;-90
2021/12/22 14:06:31;;;;;;;12.77;7.60;;;;;;;11.99;40.42;102089.22;6099039;23;20010;-90
2021/12/22 14:09:08;;;;;;;9.30;7.22;;;;;;;11.85;40.77;102079.22;6098858;23;20010;-90
2021/12/22 14:11:39;;;;;;;11.23;7.30;;;;;;;11.95;40.10;102059.91;6134094;23;20008;-90
2021/12/22 14:14:31;;;;;;;14.25;8.32;;;;;;;12.32;41.21;102082.41;6215224;23;20001;-90
2021/12/22 14:17:08;;;;;;;15.88;7.97;;;;;;;12.72;39.44;102077.22;6188614;23;20017;-90
2021/12/22 14:19:59;;;;;;;12.13;7.22;;;;;;;12.89;40.86;102064.13;6188667;23;20475;-90
2021/12/22 14:22:37;;;;;;;12.07;7.18;;;;;;;12.54;39.56;102026.03;6174965;23;20313;-90
2021/12/22 14:28:25;;;;;;;14.85;7.63;;;;;;;11.89;39.72;102073.19;6216470;23;20063;-93
2021/12/22 14:31:05;;;;;;;13.90;8.15;;;;;;;10.94;42.34;102049.72;6171965;23;20347;-90
2021/12/22 14:33:31;;;;;;;15.23;8.38;;;;;;;10.01;41.88;102014.72;6188316;23;20001;-90
2021/12/22 14:36:03;;;;;;;14.25;7.82;;;;;;;9.39;43.77;102042.75;6164325;23;20035;-93